Lariat, Colorado
Current Conditions -  °F | °C
As of 11:10 PM on Sunday 25 Jan 2015 (Local Time) from KRCV Reporting Station
Clear Clear  
Wind Chill: 12°   Ceiling: Unl
Heat Index: 24°   Visibility: 10mi
Dew Point: 17°   Wind: 13mph
Humidity: 73%   Direction: 260°W
Pressure: 30.38"   Gusts: NA
Location:  37.5196°N, 106.176°W
Report Text: KRCV 260610Z AUTO 26011KT 10SM CLR M04/M09 A3038 RMK AO2 T10441086
Loading
Personal Weather Stations






























Interactive Weather Map New forecast layout! Learn more

10-Day Weather Forecast

Advertisements
Track Severe Weather on mobile